aviador You're here:

LFQA Decoded Metar

REIMS in FRANCE
Report Time2017-09-20 16:00:00
UTC Time2017-09-20 16:22:53
Flight Rules vfr VFR
Wind130° at 05 kt
W.Decomp.*RWY 07: 2.5 kt HW 4.3 kt RCW
W.Rank130° ranks 22
Current wind is below 130° avg. (5.7)
Visibility9999 m
Phenomena:N/A
Clouds:N/A
Expected CloudBase > 2,800 ft AGL from Temp-Dew spread
CeilingNone
Temp17°C (ISA +3)
Dew Point10°C (64% RH)
AAT15.3°C
QNH1021 hPa
Density Alt518 ft
Elevation312 ft
Report Wrong Elevation
Raw Report
METAR LFQA 201600Z AUTO 13005KT CAVOK 17/10 Q1021=

Extra information for LFQA:More info

Metar Taf Metar & Taf Last 4 Metars F.Rules Stats Wind Profile Meteogram Temp Stats Airport Information Weather charts Add Link Nearby VenuesMetar ALERT Operation Metar Decoded Social comments